createdAt,value
2024-01-16T00:01:21.450Z,-2.95
2024-01-16T00:03:49.237Z,-2.95
2024-01-16T00:06:17.127Z,-2.96
2024-01-16T00:08:44.880Z,-3.01
2024-01-16T00:11:12.925Z,-3.06
2024-01-16T00:13:40.627Z,-3.11
2024-01-16T00:16:08.343Z,-3.13
2024-01-16T00:18:36.273Z,-3.16
2024-01-16T00:21:04.020Z,-3.17
2024-01-16T00:23:34.511Z,-3.16
2024-01-16T00:26:03.525Z,-3.17
2024-01-16T00:28:31.717Z,-3.19
2024-01-16T00:30:59.441Z,-3.17
2024-01-16T00:33:28.819Z,-3.16
2024-01-16T00:35:56.549Z,-3.16
2024-01-16T00:38:25.110Z,-3.15
2024-01-16T00:40:53.227Z,-3.17
2024-01-16T00:43:21.001Z,-3.19
2024-01-16T00:45:49.414Z,-3.20
2024-01-16T00:48:17.482Z,-3.20
2024-01-16T00:50:47.427Z,-3.21
2024-01-16T00:53:15.266Z,-3.20
2024-01-16T00:55:43.169Z,-3.18
2024-01-16T00:58:10.847Z,-3.15
2024-01-16T01:00:42.118Z,-3.12
2024-01-16T01:03:09.994Z,-3.09
2024-01-16T01:05:37.972Z,-3.06
2024-01-16T01:08:06.123Z,-3.03
2024-01-16T01:10:33.893Z,-3.00
2024-01-16T01:13:02.159Z,-2.97
2024-01-16T01:15:29.897Z,-2.95
2024-01-16T01:17:57.748Z,-2.94
2024-01-16T01:20:25.769Z,-2.94
2024-01-16T01:22:53.834Z,-2.93
2024-01-16T01:25:21.505Z,-2.91
2024-01-16T01:27:50.154Z,-2.89
2024-01-16T01:30:17.850Z,-2.90
2024-01-16T01:32:47.737Z,-2.92
2024-01-16T01:35:16.037Z,-2.97
2024-01-16T01:37:43.907Z,-3.01
2024-01-16T01:40:13.783Z,-3.01
2024-01-16T01:42:41.439Z,-3.01
2024-01-16T01:45:09.285Z,-2.98
2024-01-16T01:47:37.006Z,-2.94
2024-01-16T01:50:05.073Z,-2.92
2024-01-16T01:52:32.694Z,-2.90
2024-01-16T01:55:02.304Z,-2.86
2024-01-16T01:57:30.728Z,-2.85
2024-01-16T01:59:58.488Z,-2.83
2024-01-16T02:02:26.256Z,-2.80
2024-01-16T02:04:54.221Z,-2.78
2024-01-16T02:07:22.350Z,-2.75
2024-01-16T02:09:50.515Z,-2.72
2024-01-16T02:12:18.229Z,-2.70
2024-01-16T02:14:45.935Z,-2.66
2024-01-16T02:17:13.784Z,-2.66
2024-01-16T02:19:41.622Z,-2.65
2024-01-16T02:22:12.107Z,-2.64
2024-01-16T02:24:39.830Z,-2.63
2024-01-16T02:27:07.545Z,-2.63
2024-01-16T02:29:38.501Z,-2.64
2024-01-16T02:32:06.903Z,-2.65
2024-01-16T02:34:35.748Z,-2.67
2024-01-16T02:37:03.393Z,-2.70
2024-01-16T02:39:32.029Z,-2.73
2024-01-16T02:41:59.691Z,-2.74
2024-01-16T02:44:27.708Z,-2.75
2024-01-16T02:46:56.050Z,-2.75
2024-01-16T02:49:23.940Z,-2.75
2024-01-16T02:51:51.632Z,-2.75
2024-01-16T02:54:19.502Z,-2.77
2024-01-16T02:56:47.297Z,-2.78
2024-01-16T02:59:15.166Z,-2.80
2024-01-16T03:01:43.285Z,-2.80
2024-01-16T03:04:10.977Z,-2.80
2024-01-16T03:06:38.743Z,-2.80
2024-01-16T03:09:08.102Z,-2.80
2024-01-16T03:11:38.853Z,-2.80
2024-01-16T03:14:07.059Z,-2.79
2024-01-16T03:16:37.004Z,-2.80
2024-01-16T03:19:04.632Z,-2.82
2024-01-16T03:21:32.504Z,-2.83
2024-01-16T03:24:00.831Z,-2.84
2024-01-16T03:26:28.606Z,-2.85
2024-01-16T03:28:56.245Z,-2.86
2024-01-16T03:31:24.974Z,-2.86
2024-01-16T03:33:52.709Z,-2.86
2024-01-16T03:36:20.439Z,-2.86
2024-01-16T03:38:48.177Z,-2.85
2024-01-16T03:41:16.085Z,-2.83
2024-01-16T03:43:44.179Z,-2.83
2024-01-16T03:46:12.109Z,-2.83
2024-01-16T03:48:40.614Z,-2.84
2024-01-16T03:51:08.444Z,-2.83
2024-01-16T03:53:36.222Z,-2.85
2024-01-16T03:56:04.022Z,-2.84
2024-01-16T03:58:31.669Z,-2.83
2024-01-16T04:00:59.795Z,-2.84
2024-01-16T04:03:27.672Z,-2.85
2024-01-16T04:05:55.504Z,-2.85
2024-01-16T04:08:23.297Z,-2.85
2024-01-16T04:10:51.134Z,-2.86
2024-01-16T04:13:19.194Z,-2.86
2024-01-16T04:15:47.188Z,-2.85
2024-01-16T04:18:14.970Z,-2.86
2024-01-16T04:20:42.716Z,-2.88
2024-01-16T04:23:10.709Z,-2.88
2024-01-16T04:25:38.573Z,-2.88
2024-01-16T04:28:06.255Z,-2.87
2024-01-16T04:30:33.893Z,-2.85
2024-01-16T04:33:02.260Z,-2.84
2024-01-16T04:35:30.362Z,-2.85
2024-01-16T04:37:58.107Z,-2.84
2024-01-16T04:40:25.710Z,-2.81
2024-01-16T04:42:53.368Z,-2.79
2024-01-16T04:45:21.048Z,-2.76
2024-01-16T04:47:48.767Z,-2.74
2024-01-16T04:50:16.579Z,-2.71
2024-01-16T04:52:44.571Z,-2.70
2024-01-16T04:55:12.250Z,-2.70
2024-01-16T04:57:40.033Z,-2.72
2024-01-16T05:00:08.375Z,-2.72
2024-01-16T05:02:36.494Z,-2.74
2024-01-16T05:05:04.833Z,-2.73
2024-01-16T05:07:32.836Z,-2.75
2024-01-16T05:10:00.782Z,-2.76
2024-01-16T05:12:28.627Z,-2.75
2024-01-16T05:14:56.425Z,-2.75
2024-01-16T05:17:25.013Z,-2.73
2024-01-16T05:19:52.794Z,-2.72
2024-01-16T05:22:20.479Z,-2.70
2024-01-16T05:24:48.144Z,-2.69
2024-01-16T05:27:16.021Z,-2.67
2024-01-16T05:29:44.833Z,-2.65
2024-01-16T05:32:13.241Z,-2.63
2024-01-16T05:34:41.169Z,-2.63
2024-01-16T05:37:08.940Z,-2.62
2024-01-16T05:39:37.873Z,-2.65
2024-01-16T05:42:05.800Z,-2.65
2024-01-16T05:44:33.520Z,-2.64
2024-01-16T05:47:01.195Z,-2.66
2024-01-16T05:49:29.029Z,-2.68
2024-01-16T05:51:56.656Z,-2.69
2024-01-16T05:54:24.290Z,-2.72
2024-01-16T05:56:51.993Z,-2.72
2024-01-16T05:59:19.950Z,-2.71
2024-01-16T06:01:47.595Z,-2.58
2024-01-16T06:04:15.189Z,-2.44
2024-01-16T06:06:46.952Z,-2.42
2024-01-16T06:09:15.599Z,-2.50
2024-01-16T06:11:43.815Z,-2.57
2024-01-16T06:14:13.519Z,-2.61
2024-01-16T06:16:41.236Z,-2.65
2024-01-16T06:19:09.736Z,-2.64
2024-01-16T06:21:37.609Z,-2.64
2024-01-16T06:24:05.315Z,-2.65
2024-01-16T06:26:32.972Z,-2.63
2024-01-16T06:29:00.872Z,-2.61
2024-01-16T06:31:28.571Z,-2.59
2024-01-16T06:33:57.081Z,-2.60
2024-01-16T06:36:25.022Z,-2.60
2024-01-16T06:38:52.647Z,-2.61
2024-01-16T06:41:20.538Z,-2.60
2024-01-16T06:43:48.179Z,-2.51
2024-01-16T06:46:15.868Z,-2.46
2024-01-16T06:48:43.702Z,-2.50
2024-01-16T06:51:15.098Z,-2.52
2024-01-16T06:53:42.745Z,-2.52
2024-01-16T06:56:11.019Z,-2.52
2024-01-16T06:58:38.905Z,-2.52
2024-01-16T07:01:06.521Z,-2.53
2024-01-16T07:03:34.156Z,-2.53
2024-01-16T07:06:02.334Z,-2.53
2024-01-16T07:08:29.991Z,-2.53
2024-01-16T07:10:57.791Z,-2.54
2024-01-16T07:13:25.499Z,-2.55
2024-01-16T07:15:53.191Z,-2.57
2024-01-16T07:18:21.169Z,-2.59
2024-01-16T07:20:49.013Z,-2.60
2024-01-16T07:23:16.872Z,-2.59
2024-01-16T07:25:44.458Z,-2.56
2024-01-16T07:28:12.234Z,-2.55
2024-01-16T07:30:41.097Z,-2.52
2024-01-16T07:33:08.872Z,-2.50
2024-01-16T07:35:36.670Z,-2.40
2024-01-16T07:38:05.886Z,-2.36
2024-01-16T07:40:33.666Z,-2.35
2024-01-16T07:43:01.324Z,-2.37
2024-01-16T07:45:29.051Z,-2.39
2024-01-16T07:47:56.766Z,-2.19
2024-01-16T07:50:24.646Z,-2.19
2024-01-16T07:52:52.278Z,-2.24
2024-01-16T07:55:22.741Z,-2.32
2024-01-16T07:57:52.048Z,-2.34
2024-01-16T08:00:19.821Z,-2.30
2024-01-16T08:02:47.580Z,-2.26
2024-01-16T08:05:15.332Z,-2.17
2024-01-16T08:07:43.116Z,-2.07
2024-01-16T08:10:11.017Z,-2.03
2024-01-16T08:12:38.805Z,-1.99
2024-01-16T08:15:08.674Z,-1.99
2024-01-16T08:17:36.457Z,-2.02
2024-01-16T08:20:04.689Z,-2.08
2024-01-16T08:22:32.456Z,-2.13
2024-01-16T08:25:00.480Z,-2.16
2024-01-16T08:27:29.951Z,-2.19
2024-01-16T08:29:57.530Z,-2.25
2024-01-16T08:32:25.213Z,-2.30
2024-01-16T08:34:53.024Z,-2.35
2024-01-16T08:37:20.801Z,-2.36
2024-01-16T08:39:49.261Z,-2.38
2024-01-16T08:42:17.294Z,-2.38
2024-01-16T08:44:44.865Z,-2.39
2024-01-16T08:47:12.548Z,-2.40
2024-01-16T08:49:41.187Z,-2.41
2024-01-16T08:52:08.917Z,-2.40
2024-01-16T08:54:36.429Z,-2.37
2024-01-16T08:57:04.118Z,-2.36
2024-01-16T08:59:33.658Z,-2.35
2024-01-16T09:02:01.618Z,-2.34
2024-01-16T09:04:29.236Z,-2.30
2024-01-16T09:06:57.331Z,-2.26
2024-01-16T09:09:25.060Z,-2.19
2024-01-16T09:11:53.114Z,-2.14
2024-01-16T09:14:21.613Z,-2.11
2024-01-16T09:16:49.572Z,-2.12
2024-01-16T09:19:17.686Z,-2.12
2024-01-16T09:21:45.397Z,-2.12
2024-01-16T09:24:13.775Z,-2.12
2024-01-16T09:26:41.583Z,-2.11
2024-01-16T09:29:10.173Z,-2.09
2024-01-16T09:31:37.953Z,-2.08
2024-01-16T09:34:09.557Z,-2.06
2024-01-16T09:36:38.646Z,-2.03
2024-01-16T09:39:09.160Z,-1.99
2024-01-16T09:41:37.055Z,-1.97
2024-01-16T09:44:04.683Z,-1.96
2024-01-16T09:46:32.539Z,-1.97
2024-01-16T09:49:00.595Z,-1.98
2024-01-16T09:51:28.504Z,-1.97
2024-01-16T09:53:56.130Z,-1.96
2024-01-16T09:56:28.495Z,-1.96
2024-01-16T09:58:56.920Z,-1.94
2024-01-16T10:01:24.610Z,-1.92
2024-01-16T10:03:54.049Z,-1.91
2024-01-16T10:06:22.143Z,-1.93
2024-01-16T10:08:49.868Z,-1.96
2024-01-16T10:11:17.478Z,-1.93
2024-01-16T10:13:45.085Z,-1.88
2024-01-16T10:16:12.768Z,-1.87
2024-01-16T10:18:40.487Z,-1.86
2024-01-16T10:21:08.914Z,-1.85
2024-01-16T10:23:38.101Z,-1.82
2024-01-16T10:26:05.771Z,-1.79
2024-01-16T10:28:35.567Z,-1.77
2024-01-16T10:31:03.576Z,-1.74
2024-01-16T10:33:32.858Z,-1.71
2024-01-16T10:36:01.192Z,-1.65
2024-01-16T10:38:28.939Z,-1.61
2024-01-16T10:40:56.841Z,-1.59
2024-01-16T10:43:24.736Z,-1.61
2024-01-16T10:45:52.286Z,-1.62
2024-01-16T10:48:19.974Z,-1.66
2024-01-16T10:50:47.782Z,-1.65
2024-01-16T10:53:17.368Z,-1.62
2024-01-16T10:55:45.685Z,-1.57
2024-01-16T10:58:14.071Z,-1.52
2024-01-16T11:00:41.890Z,-1.45
2024-01-16T11:03:09.630Z,-1.38
2024-01-16T11:05:37.358Z,-1.32
2024-01-16T11:08:05.208Z,-1.27
2024-01-16T11:10:33.023Z,-1.18
2024-01-16T11:13:00.980Z,-1.14
2024-01-16T11:15:29.778Z,-1.14
2024-01-16T11:17:57.825Z,-1.14
2024-01-16T11:20:41.300Z,-1.13
2024-01-16T11:23:14.139Z,-1.10
2024-01-16T11:25:41.917Z,-1.10
2024-01-16T11:28:09.439Z,-1.10
2024-01-16T11:30:37.066Z,-1.10
2024-01-16T11:33:06.340Z,-1.05
2024-01-16T11:35:35.126Z,-1.01
2024-01-16T11:38:02.743Z,-1.01
2024-01-16T11:40:30.559Z,-1.02
2024-01-16T11:42:58.122Z,-1.07
2024-01-16T11:45:26.714Z,-1.09
2024-01-16T11:47:54.570Z,-1.12
2024-01-16T11:50:24.199Z,-1.15
2024-01-16T11:52:51.919Z,-1.20
2024-01-16T11:55:19.557Z,-1.27
2024-01-16T11:57:48.411Z,-1.34
2024-01-16T12:00:16.821Z,-1.38
2024-01-16T12:02:44.640Z,-1.43
2024-01-16T12:05:12.556Z,-1.44
2024-01-16T12:07:41.338Z,-1.44
2024-01-16T12:10:10.724Z,-1.42
2024-01-16T12:12:38.348Z,-1.38
2024-01-16T12:15:06.019Z,-1.35
2024-01-16T12:17:33.809Z,-1.31
2024-01-16T12:20:01.600Z,-1.36
2024-01-16T12:22:29.684Z,-1.40
2024-01-16T12:24:57.894Z,-1.43
2024-01-16T12:27:26.243Z,-1.45
2024-01-16T12:29:53.956Z,-1.48
2024-01-16T12:32:23.409Z,-1.54
2024-01-16T12:34:51.350Z,-1.61
2024-01-16T12:37:18.985Z,-1.65
2024-01-16T12:39:46.753Z,-1.71
2024-01-16T12:42:14.496Z,-1.74
2024-01-16T12:44:42.279Z,-1.69
2024-01-16T12:47:11.140Z,-1.63
2024-01-16T12:49:39.945Z,-1.57
2024-01-16T12:52:07.540Z,-1.57
2024-01-16T12:54:35.324Z,-1.66
2024-01-16T12:57:03.020Z,-1.71
2024-01-16T12:59:33.423Z,-1.70
2024-01-16T13:02:01.792Z,-1.73
2024-01-16T13:04:29.486Z,-1.76
2024-01-16T13:06:57.318Z,-1.77
2024-01-16T13:09:25.272Z,-1.81
2024-01-16T13:11:53.463Z,-1.82
2024-01-16T13:14:24.858Z,-1.81
2024-01-16T13:16:53.024Z,-1.84
2024-01-16T13:19:21.199Z,-1.85
2024-01-16T13:21:49.175Z,-1.87
2024-01-16T13:24:18.766Z,-1.89
2024-01-16T13:26:46.554Z,-1.91
2024-01-16T13:29:14.391Z,-1.92
2024-01-16T13:31:42.140Z,-1.93
2024-01-16T13:34:10.281Z,-1.94
2024-01-16T13:39:14.483Z,-1.97
2024-01-16T13:41:42.352Z,-1.99
2024-01-16T13:44:10.075Z,-1.99
2024-01-16T13:46:53.003Z,-2.01
2024-01-16T13:49:26.848Z,-2.01
2024-01-16T13:51:54.779Z,-2.00
2024-01-16T13:54:22.346Z,-2.01
2024-01-16T14:00:23.189Z,-2.00
2024-01-16T14:02:51.939Z,-1.98
2024-01-16T14:05:19.945Z,-2.00
2024-01-16T14:07:47.869Z,-2.00
2024-01-16T14:10:15.771Z,-2.02
2024-01-16T14:12:46.362Z,-2.03
2024-01-16T14:15:17.760Z,-2.06
2024-01-16T14:17:45.607Z,-2.09
2024-01-16T14:20:13.658Z,-2.10
2024-01-16T14:22:41.589Z,-2.13
2024-01-16T14:25:12.254Z,-2.16
2024-01-16T14:27:40.590Z,-2.19
2024-01-16T14:30:09.053Z,-2.22
2024-01-16T14:32:36.971Z,-2.25
2024-01-16T14:35:05.935Z,-2.28
2024-01-16T14:37:33.674Z,-2.29
2024-01-16T14:40:02.470Z,-2.33
2024-01-16T14:42:30.129Z,-2.35
2024-01-16T14:44:57.852Z,-2.37
2024-01-16T14:47:25.902Z,-2.37
2024-01-16T14:49:56.160Z,-2.39
2024-01-16T14:52:26.280Z,-2.39
2024-01-16T14:54:53.983Z,-2.41
2024-01-16T14:57:21.829Z,-2.43
2024-01-16T14:59:49.748Z,-2.44
2024-01-16T15:02:17.849Z,-2.44
2024-01-16T15:04:47.349Z,-2.44
2024-01-16T15:07:15.425Z,-2.43
2024-01-16T15:09:43.191Z,-2.43
2024-01-16T15:12:11.017Z,-2.42
2024-01-16T15:14:38.885Z,-2.42
2024-01-16T15:17:08.488Z,-2.42
2024-01-16T15:19:36.493Z,-2.40
2024-01-16T15:22:04.362Z,-2.41
2024-01-16T15:24:32.131Z,-2.42
2024-01-16T15:26:59.932Z,-2.42
2024-01-16T15:29:27.876Z,-2.43
2024-01-16T15:31:55.716Z,-2.46
2024-01-16T15:34:23.575Z,-2.47
2024-01-16T15:36:51.416Z,-2.49
2024-01-16T15:39:20.014Z,-2.52
2024-01-16T15:41:47.820Z,-2.54
2024-01-16T15:44:15.794Z,-2.57
2024-01-16T15:46:43.553Z,-2.63
2024-01-16T15:49:11.262Z,-2.65
2024-01-16T15:51:42.473Z,-2.68
2024-01-16T15:54:10.390Z,-2.72
2024-01-16T15:56:38.228Z,-2.75
2024-01-16T15:59:06.285Z,-2.79
2024-01-16T16:01:34.258Z,-2.81
2024-01-16T16:04:01.933Z,-2.84
2024-01-16T16:06:29.929Z,-2.86
2024-01-16T16:08:57.849Z,-2.88
2024-01-16T16:11:25.718Z,-2.89
2024-01-16T16:13:53.984Z,-2.91
2024-01-16T16:16:21.901Z,-2.94
2024-01-16T16:18:49.735Z,-2.95
2024-01-16T16:21:17.758Z,-2.96
2024-01-16T16:23:46.506Z,-2.96
2024-01-16T16:26:14.163Z,-2.95
2024-01-16T16:28:42.187Z,-2.95
2024-01-16T16:31:11.333Z,-2.95
2024-01-16T16:33:39.136Z,-2.93
2024-01-16T16:36:07.062Z,-2.91
2024-01-16T16:38:34.986Z,-2.90
2024-01-16T16:41:03.299Z,-2.90
2024-01-16T16:43:31.001Z,-2.89
2024-01-16T16:45:59.947Z,-2.89
2024-01-16T16:48:27.786Z,-2.91
2024-01-16T16:50:55.629Z,-2.92
2024-01-16T16:53:25.164Z,-2.92
2024-01-16T16:55:54.317Z,-2.93
2024-01-16T16:58:22.083Z,-2.94
2024-01-16T17:00:50.917Z,-2.96
2024-01-16T17:03:18.636Z,-2.99
2024-01-16T17:05:46.657Z,-3.01
2024-01-16T17:08:14.552Z,-3.04
2024-01-16T17:10:43.168Z,-3.07
2024-01-16T17:13:11.023Z,-3.14
2024-01-16T17:15:38.761Z,-3.18
2024-01-16T17:18:07.970Z,-3.21
2024-01-16T17:20:35.814Z,-3.24
2024-01-16T17:23:03.606Z,-3.28
2024-01-16T17:25:31.263Z,-3.33
2024-01-16T17:27:59.648Z,-3.35
2024-01-16T17:30:27.353Z,-3.36
2024-01-16T17:32:55.249Z,-3.37
2024-01-16T17:35:25.244Z,-3.37
2024-01-16T17:37:53.076Z,-3.36
2024-01-16T17:40:20.747Z,-3.36
2024-01-16T17:42:49.093Z,-3.30
2024-01-16T17:45:16.850Z,-3.15
2024-01-16T17:47:44.660Z,-3.09
2024-01-16T17:50:13.320Z,-3.09
2024-01-16T17:52:40.943Z,-3.07
2024-01-16T17:55:10.056Z,-3.07
2024-01-16T17:57:37.762Z,-3.09
2024-01-16T18:00:07.023Z,-3.09
2024-01-16T18:02:34.864Z,-3.08
2024-01-16T18:05:11.522Z,-3.07
2024-01-16T18:07:39.615Z,-3.06
2024-01-16T18:10:10.406Z,-3.07
2024-01-16T18:12:38.202Z,-3.07
2024-01-16T18:15:06.245Z,-3.07
2024-01-16T18:17:33.963Z,-3.08
2024-01-16T18:20:01.837Z,-2.93
2024-01-16T18:22:29.508Z,-2.85
2024-01-16T18:24:57.157Z,-2.91
2024-01-16T18:27:24.835Z,-2.94
2024-01-16T18:29:52.551Z,-2.96
2024-01-16T18:32:20.445Z,-2.98
2024-01-16T18:34:48.537Z,-2.99
2024-01-16T18:37:17.671Z,-3.01
2024-01-16T18:39:45.385Z,-3.00
2024-01-16T18:42:13.208Z,-3.01
2024-01-16T18:44:40.944Z,-3.02
2024-01-16T18:47:08.531Z,-3.04
2024-01-16T18:49:36.491Z,-3.07
2024-01-16T18:52:07.175Z,-3.10
2024-01-16T18:54:35.645Z,-3.10
2024-01-16T18:57:04.051Z,-3.11
2024-01-16T18:59:32.063Z,-3.15
2024-01-16T19:02:00.072Z,-3.21
2024-01-16T19:04:30.685Z,-3.24
2024-01-16T19:07:01.182Z,-3.26
2024-01-16T19:09:38.080Z,-3.27
2024-01-16T19:12:07.135Z,-3.22
2024-01-16T19:14:35.034Z,-3.18
2024-01-16T19:17:02.826Z,-3.22
2024-01-16T19:19:30.565Z,-3.27
2024-01-16T19:21:59.632Z,-3.29
2024-01-16T19:24:28.340Z,-3.31
2024-01-16T19:26:58.829Z,-3.33
2024-01-16T19:29:26.995Z,-3.34
2024-01-16T19:31:54.639Z,-3.34
2024-01-16T19:34:22.303Z,-3.34
2024-01-16T19:36:51.108Z,-3.35
2024-01-16T19:39:22.378Z,-3.35
2024-01-16T19:41:50.170Z,-3.37
2024-01-16T19:44:18.124Z,-3.40
2024-01-16T19:46:46.582Z,-3.42
2024-01-16T19:49:14.752Z,-3.45
2024-01-16T19:51:42.615Z,-3.45
2024-01-16T19:54:10.501Z,-3.45
2024-01-16T19:56:41.381Z,-3.47
2024-01-16T19:59:12.656Z,-3.48
2024-01-16T20:01:40.836Z,-3.50
2024-01-16T20:04:08.509Z,-3.56
2024-01-16T20:06:37.919Z,-3.62
2024-01-16T20:09:07.375Z,-3.66
2024-01-16T20:11:35.427Z,-3.70
2024-01-16T20:14:03.427Z,-3.71
2024-01-16T20:16:31.220Z,-3.75
2024-01-16T20:18:59.067Z,-3.77
2024-01-16T20:21:30.032Z,-3.78
2024-01-16T20:23:58.016Z,-3.79
2024-01-16T20:26:27.101Z,-3.77
2024-01-16T20:28:55.253Z,-3.79
2024-01-16T20:31:23.381Z,-3.83
2024-01-16T20:33:51.364Z,-3.84
2024-01-16T20:36:19.365Z,-3.89
2024-01-16T20:38:48.697Z,-3.93
2024-01-16T20:41:16.881Z,-3.96
2024-01-16T20:43:45.298Z,-4.00
2024-01-16T20:46:13.119Z,-4.03
2024-01-16T20:48:41.447Z,-4.05
2024-01-16T20:51:13.244Z,-4.10
2024-01-16T20:53:40.989Z,-4.15
2024-01-16T20:56:08.622Z,-4.18
2024-01-16T20:58:37.022Z,-4.24
2024-01-16T21:01:04.937Z,-4.34
2024-01-16T21:03:33.218Z,-4.40
2024-01-16T21:06:03.402Z,-4.42
2024-01-16T21:08:32.490Z,-4.47
2024-01-16T21:11:00.533Z,-4.48
2024-01-16T21:13:29.229Z,-4.53
2024-01-16T21:15:57.953Z,-4.63
2024-01-16T21:18:31.040Z,-4.63
2024-01-16T21:20:59.938Z,-4.61
2024-01-16T21:23:27.642Z,-4.60
2024-01-16T21:25:55.521Z,-4.62
2024-01-16T21:28:24.570Z,-4.69
2024-01-16T21:30:55.799Z,-4.72
2024-01-16T21:33:23.784Z,-4.71
2024-01-16T21:35:53.108Z,-4.71
2024-01-16T21:38:21.048Z,-4.74
2024-01-16T21:40:49.392Z,-4.79
2024-01-16T21:43:17.161Z,-4.84
2024-01-16T21:45:45.020Z,-4.87
2024-01-16T21:48:12.748Z,-4.93
2024-01-16T21:50:40.783Z,-5.04
2024-01-16T21:53:08.645Z,-5.16
2024-01-16T21:55:36.440Z,-5.29
2024-01-16T21:58:04.385Z,-5.39
2024-01-16T22:00:32.652Z,-5.46
2024-01-16T22:03:00.986Z,-5.36
2024-01-16T22:05:29.273Z,-5.47
2024-01-16T22:07:57.069Z,-5.62
2024-01-16T22:10:24.833Z,-5.68
2024-01-16T22:12:52.500Z,-5.75
2024-01-16T22:15:20.069Z,-5.89
2024-01-16T22:17:48.724Z,-6.10
2024-01-16T22:20:17.724Z,-6.26
2024-01-16T22:22:45.426Z,-6.25
2024-01-16T22:25:13.630Z,-6.27
2024-01-16T22:27:41.250Z,-6.28
2024-01-16T22:30:09.403Z,-6.30
2024-01-16T22:32:37.240Z,-6.34
2024-01-16T22:35:05.070Z,-6.43
2024-01-16T22:37:33.273Z,-6.50
2024-01-16T22:40:01.449Z,-6.60
2024-01-16T22:42:29.264Z,-6.76
2024-01-16T22:44:57.262Z,-6.78
2024-01-16T22:47:25.241Z,-6.88
2024-01-16T22:49:53.124Z,-7.05
2024-01-16T22:52:20.852Z,-7.06
2024-01-16T22:54:48.430Z,-7.02
2024-01-16T22:57:16.173Z,-7.02
2024-01-16T22:59:43.902Z,-7.01
2024-01-16T23:02:11.986Z,-7.04
2024-01-16T23:04:40.109Z,-7.04
2024-01-16T23:07:08.550Z,-7.10
2024-01-16T23:09:36.306Z,-7.12
2024-01-16T23:12:04.091Z,-7.12
2024-01-16T23:14:32.307Z,-7.15
2024-01-16T23:16:59.905Z,-7.20
2024-01-16T23:19:27.813Z,-7.29
2024-01-16T23:21:55.781Z,-7.36
2024-01-16T23:24:23.398Z,-7.39
2024-01-16T23:26:51.161Z,-7.43
2024-01-16T23:29:18.811Z,-7.54
2024-01-16T23:31:46.681Z,-7.68
2024-01-16T23:34:14.550Z,-7.87
2024-01-16T23:36:42.122Z,-7.98
2024-01-16T23:39:12.081Z,-8.00
2024-01-16T23:41:40.156Z,-8.12
2024-01-16T23:44:09.557Z,-8.26
2024-01-16T23:46:40.108Z,-8.33
2024-01-16T23:49:07.932Z,-8.46
2024-01-16T23:51:36.861Z,-8.45
2024-01-16T23:54:04.531Z,-8.39
2024-01-16T23:56:32.425Z,-8.35
2024-01-16T23:59:00.853Z,-8.32
